Terminal Aerodrome Forecast
Issued by NWS

Home | Current Version | Previous Version | Graphics & Text | Print | Product List | Glossary On
Versions: 1 2 3 4 5 6 7 8 9 10 11 12 13 14 15 16 17 18
000
FTUS43 KBIS 210500
TAFMOT
TAF
KMOT 210525Z 2106/2206 06008KT P6SM SCT100
      TEMPO 2120/2124 5SM TSRA BKN050CB
     FM220000 33012KT P6SM -SHRA OVC050=

USA.gov is the U.S. government's official web portal to all federal, state and local government web resources and services.